Time;durP1;ratioP1;P1;durP2;ratioP2;P2;SDS_P1;SDS_P2;PMS_P1;PMS_P2;Temp;Humidity;BMP_temperature;BMP_pressure;BME280_temperature;BME280_humidity;BME280_pressure;Samples;Min_cycle;Max_cycle;Signal;HPM_P1;HPM_P2
2022/08/16 00:01:23;;;;;;;13.18;11.02;;;21.60;99.90;;;;;;5084878;28;20820;-84
2022/08/16 00:03:53;;;;;;;13.37;10.53;;;21.60;99.90;;;;;;5068538;28;20392;-83
2022/08/16 00:06:21;;;;;;;13.23;11.30;;;21.60;99.90;;;;;;5084937;28;20396;-84
2022/08/16 00:08:49;;;;;;;14.48;11.07;;;21.70;99.90;;;;;;5052506;28;20451;-83
2022/08/16 00:11:19;;;;;;;15.95;12.48;;;21.60;99.90;;;;;;5084990;28;20438;-84
2022/08/16 00:13:49;;;;;;;16.90;12.05;;;21.50;99.90;;;;;;5052970;28;20433;-83
2022/08/16 00:16:24;;;;;;;16.98;11.20;;;21.50;99.90;;;;;;5103304;28;20715;-83
2022/08/16 00:19:20;;;;;;;16.65;11.07;;;21.40;99.90;;;;;;5071157;28;20435;-84
2022/08/16 00:21:51;;;;;;;14.93;11.60;;;21.40;99.90;;;;;;5071053;28;20439;-84
2022/08/16 00:24:28;;;;;;;14.73;12.13;;;21.30;99.90;;;;;;5071264;28;20429;-83
2022/08/16 00:27:00;;;;;;;14.70;11.82;;;21.40;99.90;;;;;;5072065;28;20808;-84
2022/08/16 00:29:29;;;;;;;13.32;11.27;;;21.40;99.90;;;;;;5070873;28;20814;-84
2022/08/16 00:32:02;;;;;;;14.83;11.43;;;21.40;99.90;;;;;;5070968;28;20436;-83
2022/08/16 00:34:34;;;;;;;15.75;11.70;;;21.40;99.90;;;;;;5070808;28;20462;-83
2022/08/16 00:37:24;;;;;;;14.45;11.77;;;21.50;99.90;;;;;;5070725;28;20386;-84
2022/08/16 00:40:22;;;;;;;14.50;11.00;;;21.40;99.90;;;;;;5071974;28;20382;-83
2022/08/16 00:43:15;;;;;;;14.65;10.50;;;21.40;99.90;;;;;;5069453;28;20381;-84
2022/08/16 00:45:57;;;;;;;14.70;11.50;;;21.40;99.90;;;;;;5050709;28;20392;-83
2022/08/16 00:48:29;;;;;;;12.30;10.82;;;21.50;99.90;;;;;;5050536;28;20766;-83
2022/08/16 00:51:12;;;;;;;15.05;10.52;;;21.50;99.90;;;;;;5084050;28;20399;-84
2022/08/16 00:53:45;;;;;;;15.57;11.57;;;21.40;99.90;;;;;;5052103;28;20380;-83
2022/08/16 00:56:17;;;;;;;14.77;10.50;;;21.40;99.90;;;;;;5066773;28;20837;-83
2022/08/16 00:59:08;;;;;;;14.95;11.07;;;21.30;99.90;;;;;;5070355;28;20937;-84
2022/08/16 01:01:36;;;;;;;14.27;9.82;;;21.30;99.90;;;;;;5070500;28;20382;-83
2022/08/16 01:04:06;;;;;;;14.90;11.10;;;21.20;99.90;;;;;;5086931;28;20390;-83
2022/08/16 01:06:54;;;;;;;15.67;11.17;;;21.30;99.90;;;;;;5070352;28;20457;-83
2022/08/16 01:09:36;;;;;;;14.80;10.75;;;21.20;99.90;;;;;;5071560;28;20408;-83
2022/08/16 01:12:06;;;;;;;13.18;11.25;;;21.20;99.90;;;;;;5070358;28;20387;-84
2022/08/16 01:14:47;;;;;;;12.13;10.52;;;21.20;99.90;;;;;;5087488;28;20394;-84
2022/08/16 01:17:18;;;;;;;13.48;10.90;;;21.10;99.90;;;;;;5070153;28;20875;-83
2022/08/16 01:19:58;;;;;;;14.30;10.45;;;21.10;99.90;;;;;;5071406;28;20393;-84
2022/08/16 01:22:51;;;;;;;16.17;11.15;;;21.10;99.90;;;;;;5071460;28;20390;-84
2022/08/16 01:25:27;;;;;;;14.30;10.68;;;21.00;99.90;;;;;;5069873;28;20389;-83
2022/08/16 01:28:05;;;;;;;14.23;11.48;;;21.00;99.90;;;;;;5071321;28;20477;-84
2022/08/16 01:30:37;;;;;;;13.13;10.98;;;21.10;99.90;;;;;;5071803;28;20812;-83
2022/08/16 01:33:18;;;;;;;13.48;10.38;;;21.00;99.90;;;;;;5070041;28;20379;-84
2022/08/16 01:36:03;;;;;;;13.05;10.32;;;21.00;99.90;;;;;;5051175;28;20396;-84
2022/08/16 01:38:44;;;;;;;12.38;9.95;;;21.00;99.90;;;;;;5048751;28;20914;-84
2022/08/16 01:41:29;;;;;;;13.33;10.63;;;20.90;99.90;;;;;;5064771;28;20487;-84
2022/08/16 01:44:01;;;;;;;15.27;10.20;;;21.00;99.90;;;;;;5083537;28;20395;-84
2022/08/16 01:46:46;;;;;;;13.05;10.07;;;20.90;99.90;;;;;;5083429;28;20423;-83
2022/08/16 01:49:23;;;;;;;15.25;9.60;;;21.00;99.90;;;;;;5051162;28;20400;-83
2022/08/16 01:52:14;;;;;;;13.82;10.40;;;21.00;99.90;;;;;;5052097;28;20418;-83
2022/08/16 01:55:11;;;;;;;14.90;10.93;;;20.90;99.90;;;;;;5056340;28;20493;-83
2022/08/16 01:57:42;;;;;;;13.90;9.93;;;20.90;99.90;;;;;;5088654;28;20387;-83
2022/08/16 02:00:23;;;;;;;14.77;10.35;;;20.90;99.90;;;;;;5081464;28;20430;-83
2022/08/16 02:02:58;;;;;;;11.40;9.63;;;20.90;99.90;;;;;;5049799;28;20399;-84
2022/08/16 02:05:27;;;;;;;14.45;10.13;;;20.80;99.90;;;;;;5049787;28;20419;-83
2022/08/16 02:08:01;;;;;;;13.20;9.90;;;20.80;99.90;;;;;;5051478;28;20445;-84
2022/08/16 02:10:31;;;;;;;13.97;10.27;;;20.80;99.90;;;;;;5087268;28;20391;-84
2022/08/16 02:13:03;;;;;;;15.45;9.80;;;20.80;99.90;;;;;;5053538;28;20862;-83
2022/08/16 02:15:34;;;;;;;12.73;9.57;;;20.80;99.90;;;;;;5069809;28;20428;-84
2022/08/16 02:18:12;;;;;;;13.30;10.45;;;20.80;99.90;;;;;;5087105;28;20603;-84
2022/08/16 02:20:50;;;;;;;13.13;10.05;;;20.80;99.90;;;;;;5054568;28;20411;-83
2022/08/16 02:23:21;;;;;;;13.52;9.82;;;20.70;99.90;;;;;;5098196;28;20448;-83
2022/08/16 02:25:50;;;;;;;13.85;10.05;;;20.70;99.90;;;;;;5105837;28;20390;-83
2022/08/16 02:28:23;;;;;;;12.18;9.40;;;20.60;99.90;;;;;;5074736;28;20390;-83
2022/08/16 02:30:53;;;;;;;13.18;10.05;;;20.60;99.90;;;;;;5106172;28;20394;-83
2022/08/16 02:33:23;;;;;;;16.02;10.63;;;20.60;99.90;;;;;;5073114;28;20799;-83
2022/08/16 02:36:15;;;;;;;12.35;9.90;;;20.60;99.90;;;;;;5086245;28;20963;-83
2022/08/16 02:39:05;;;;;;;11.23;9.70;;;20.50;99.90;;;;;;5073058;28;20401;-83
2022/08/16 02:41:35;;;;;;;15.13;10.70;;;20.50;99.90;;;;;;5089567;28;20425;-83
2022/08/16 02:44:10;;;;;;;12.15;10.15;;;20.50;99.90;;;;;;5072957;28;20903;-83
2022/08/16 02:46:44;;;;;;;14.80;11.23;;;20.40;99.90;;;;;;5073119;28;20409;-83
2022/08/16 02:49:18;;;;;;;12.18;10.18;;;20.40;99.90;;;;;;5090778;28;20892;-83
2022/08/16 02:51:46;;;;;;;11.85;9.63;;;20.40;99.90;;;;;;5054750;28;20395;-83
2022/08/16 02:54:16;;;;;;;13.60;10.10;;;20.40;99.90;;;;;;5052849;28;20391;-84
2022/08/16 02:56:45;;;;;;;12.20;9.98;;;20.40;99.90;;;;;;5052726;28;20817;-83
2022/08/16 02:59:14;;;;;;;12.63;10.20;;;20.40;99.90;;;;;;5058468;28;20394;-83
2022/08/16 03:01:42;;;;;;;11.05;9.90;;;20.30;99.90;;;;;;5060038;28;20442;-83
2022/08/16 03:04:22;;;;;;;12.23;9.43;;;20.30;99.90;;;;;;5052585;28;20392;-83
2022/08/16 03:07:11;;;;;;;11.50;9.13;;;20.30;99.90;;;;;;5065804;28;20390;-84
2022/08/16 03:09:49;;;;;;;14.30;10.18;;;20.30;99.90;;;;;;5072525;28;20919;-83
2022/08/16 03:12:21;;;;;;;12.17;9.27;;;20.30;99.90;;;;;;5072601;28;20733;-82
2022/08/16 03:14:58;;;;;;;11.70;9.65;;;20.20;99.90;;;;;;5106230;28;20418;-84
2022/08/16 03:17:25;;;;;;;14.05;10.45;;;20.20;99.90;;;;;;5073692;28;20468;-84
2022/08/16 03:20:03;;;;;;;14.77;10.82;;;20.20;99.90;;;;;;5068529;28;20874;-83
2022/08/16 03:22:36;;;;;;;12.07;10.00;;;20.20;99.90;;;;;;5052309;28;20400;-83
2022/08/16 03:25:12;;;;;;;13.90;9.77;;;20.20;99.90;;;;;;5052133;28;20404;-83
2022/08/16 03:27:52;;;;;;;15.05;11.10;;;20.20;99.90;;;;;;5082440;28;20476;-83
2022/08/16 03:30:26;;;;;;;13.83;10.83;;;20.10;99.90;;;;;;5057383;28;20537;-83
2022/08/16 03:32:58;;;;;;;14.85;9.90;;;20.10;99.90;;;;;;5073606;28;20386;-83
2022/08/16 03:35:32;;;;;;;13.77;10.52;;;20.10;99.90;;;;;;5073262;28;20386;-84
2022/08/16 03:38:16;;;;;;;11.57;9.27;;;20.10;99.90;;;;;;5069947;28;20414;-83
2022/08/16 03:41:08;;;;;;;16.42;11.18;;;20.10;99.90;;;;;;5071861;28;20380;-83
2022/08/16 03:43:53;;;;;;;14.13;11.07;;;20.10;99.90;;;;;;5052891;28;20438;-83
2022/08/16 03:46:27;;;;;;;14.60;10.60;;;20.10;99.90;;;;;;5067679;28;20412;-83
2022/08/16 03:49:16;;;;;;;12.57;11.00;;;20.00;99.90;;;;;;5085228;28;20857;-83
2022/08/16 03:51:47;;;;;;;14.18;11.00;;;20.00;99.90;;;;;;5055512;28;20400;-83
2022/08/16 03:54:25;;;;;;;14.23;10.83;;;20.00;99.90;;;;;;5071637;28;20495;-83
2022/08/16 03:56:56;;;;;;;12.57;9.90;;;20.00;99.90;;;;;;5088958;28;20424;-83
2022/08/16 03:59:30;;;;;;;12.80;10.20;;;19.90;99.90;;;;;;5071546;28;20402;-83
2022/08/16 04:02:03;;;;;;;13.73;11.07;;;20.00;99.90;;;;;;5072751;28;20814;-83
2022/08/16 04:04:48;;;;;;;11.93;10.00;;;20.00;99.90;;;;;;5071327;28;20887;-84
2022/08/16 04:07:16;;;;;;;11.82;10.63;;;20.00;99.90;;;;;;5071125;28;20401;-83
2022/08/16 04:09:46;;;;;;;13.63;9.90;;;20.10;99.90;;;;;;5054926;28;20981;-84
2022/08/16 04:12:13;;;;;;;13.27;10.32;;;20.10;99.90;;;;;;5071237;28;20392;-83
2022/08/16 04:15:03;;;;;;;11.43;10.20;;;20.00;99.90;;;;;;5071090;28;20490;-83
2022/08/16 04:17:41;;;;;;;12.18;10.23;;;20.00;99.90;;;;;;5071056;28;20386;-83
2022/08/16 04:20:12;;;;;;;12.65;10.55;;;20.00;99.90;;;;;;5055135;28;20382;-84
2022/08/16 04:23:02;;;;;;;11.33;9.50;;;20.00;99.90;;;;;;5062756;28;20410;-83
2022/08/16 04:25:33;;;;;;;16.08;10.68;;;20.00;99.90;;;;;;5104837;28;20406;-84
2022/08/16 04:28:03;;;;;;;14.07;11.32;;;19.90;99.90;;;;;;5070933;28;20398;-83
2022/08/16 04:30:51;;;;;;;14.93;11.70;;;19.90;99.90;;;;;;5069249;28;20402;-83
2022/08/16 04:33:20;;;;;;;15.73;12.15;;;20.00;99.90;;;;;;5087453;28;20808;-84
2022/08/16 04:35:57;;;;;;;15.37;12.60;;;20.00;99.90;;;;;;5068861;28;20397;-83
2022/08/16 04:38:27;;;;;;;12.85;11.27;;;20.00;99.90;;;;;;5068040;28;20396;-83
2022/08/16 04:40:57;;;;;;;12.82;11.43;;;20.00;99.90;;;;;;5062514;28;20803;-83
2022/08/16 04:43:26;;;;;;;14.13;10.40;;;20.00;99.90;;;;;;5070412;28;20489;-84
2022/08/16 04:45:59;;;;;;;12.60;11.02;;;20.00;99.90;;;;;;5070000;28;20908;-83
2022/08/16 04:48:34;;;;;;;11.57;10.38;;;20.00;99.90;;;;;;5070277;28;20903;-83
2022/08/16 04:51:10;;;;;;;12.95;10.93;;;20.00;99.90;;;;;;5070527;28;20390;-83
2022/08/16 04:53:47;;;;;;;13.90;10.85;;;20.00;99.90;;;;;;5070275;28;20394;-82
2022/08/16 04:56:19;;;;;;;12.93;11.43;;;20.10;99.90;;;;;;5070503;28;20394;-83
2022/08/16 04:58:50;;;;;;;12.10;10.80;;;20.10;99.90;;;;;;5069467;28;20430;-85
2022/08/16 05:01:25;;;;;;;11.23;10.13;;;20.10;99.90;;;;;;5071715;28;20487;-83
2022/08/16 05:04:14;;;;;;;14.70;11.70;;;20.10;99.90;;;;;;5070371;28;20401;-83
2022/08/16 05:06:48;;;;;;;15.68;13.48;;;20.10;99.90;;;;;;5070142;28;20888;-83
2022/08/16 05:09:26;;;;;;;13.25;11.48;;;20.20;99.90;;;;;;5070132;28;20414;-84
2022/08/16 05:11:57;;;;;;;16.00;12.70;;;20.20;99.90;;;;;;5104209;28;20908;-84
2022/08/16 05:14:27;;;;;;;13.37;11.53;;;20.20;99.90;;;;;;5070244;28;20810;-84
2022/08/16 05:17:20;;;;;;;13.25;11.18;;;20.20;99.90;;;;;;5069343;28;20406;-83
2022/08/16 05:19:54;;;;;;;14.70;12.37;;;20.20;99.90;;;;;;5050102;28;20395;-83
2022/08/16 05:22:35;;;;;;;13.03;11.57;;;20.20;99.90;;;;;;5084627;28;20886;-84
2022/08/16 05:25:09;;;;;;;15.27;11.23;;;20.20;99.90;;;;;;5069844;28;21105;-84
2022/08/16 05:27:43;;;;;;;14.55;11.88;;;20.30;99.90;;;;;;5070055;28;20404;-83
2022/08/16 05:30:15;;;;;;;15.70;11.98;;;20.30;99.90;;;;;;5071288;28;20899;-84
2022/08/16 05:33:07;;;;;;;16.25;12.52;;;20.30;99.90;;;;;;5066437;28;20502;-85
2022/08/16 05:35:47;;;;;;;13.27;11.95;;;20.30;99.90;;;;;;5048868;28;20441;-85
2022/08/16 05:38:38;;;;;;;12.88;11.48;;;20.40;99.90;;;;;;5050154;28;20392;-86
2022/08/16 05:41:13;;;;;;;17.42;11.95;;;20.40;99.90;;;;;;5068521;28;20568;-85
2022/08/16 05:43:45;;;;;;;13.82;10.75;;;20.40;99.90;;;;;;5073219;28;20395;-85
2022/08/16 05:46:34;;;;;;;14.20;11.73;;;20.50;99.90;;;;;;5060622;28;20447;-85
2022/08/16 05:49:15;;;;;;;13.05;11.57;;;20.50;99.90;;;;;;5074023;28;20393;-85
2022/08/16 05:51:54;;;;;;;16.58;12.07;;;20.50;99.90;;;;;;5058959;28;20402;-84
2022/08/16 05:54:23;;;;;;;14.65;12.18;;;20.50;99.90;;;;;;5054193;28;20494;-84
2022/08/16 05:56:58;;;;;;;12.35;11.02;;;20.50;99.90;;;;;;5087429;28;20482;-84
2022/08/16 05:59:27;;;;;;;13.68;11.23;;;20.60;99.90;;;;;;5053954;28;20434;-84
2022/08/16 06:01:56;;;;;;;14.90;10.60;;;20.60;99.90;;;;;;5097280;28;20402;-85
2022/08/16 06:04:33;;;;;;;13.30;11.50;;;20.70;99.90;;;;;;5073768;28;20402;-85
2022/08/16 06:07:09;;;;;;;14.05;11.43;;;20.70;99.90;;;;;;5073857;28;20425;-85
2022/08/16 06:10:05;;;;;;;15.33;11.33;;;20.70;99.90;;;;;;5073439;28;20406;-85
2022/08/16 06:12:34;;;;;;;12.50;11.15;;;20.80;99.90;;;;;;5073750;28;20390;-85
2022/08/16 06:15:13;;;;;;;13.55;11.90;;;20.80;99.90;;;;;;5073434;28;20426;-85
2022/08/16 06:17:44;;;;;;;15.05;11.85;;;20.90;99.90;;;;;;5073684;28;20509;-84
2022/08/16 06:20:23;;;;;;;12.60;11.30;;;21.00;99.90;;;;;;5073389;28;20425;-84
2022/08/16 06:23:29;;;;;;;14.48;12.00;;;21.00;99.90;;;;;;5071636;28;20398;-84
2022/08/16 06:26:04;;;;;;;13.60;11.52;;;21.10;99.90;;;;;;5103098;28;20407;-85
2022/08/16 06:28:40;;;;;;;15.73;11.68;;;21.10;99.90;;;;;;5069230;28;20829;-84
2022/08/16 06:31:14;;;;;;;14.80;10.63;;;21.10;99.90;;;;;;5070953;28;20503;-84
2022/08/16 06:33:46;;;;;;;14.55;11.48;;;21.20;99.90;;;;;;5080420;28;20405;-85
2022/08/16 06:36:19;;;;;;;14.20;11.32;;;21.30;99.90;;;;;;5073182;28;20401;-85
2022/08/16 06:39:14;;;;;;;16.17;11.52;;;21.30;99.90;;;;;;5071372;28;20406;-84
2022/08/16 06:41:49;;;;;;;14.30;11.55;;;21.40;99.90;;;;;;5073237;28;20396;-84
2022/08/16 06:44:37;;;;;;;17.27;11.35;;;21.40;99.90;;;;;;5074153;28;20402;-85
2022/08/16 06:47:15;;;;;;;13.05;10.77;;;21.50;99.90;;;;;;5057909;28;20394;-84
2022/08/16 06:49:44;;;;;;;15.95;11.07;;;21.60;99.90;;;;;;5072873;28;20406;-85
2022/08/16 06:52:24;;;;;;;14.63;11.13;;;21.70;99.90;;;;;;5073031;28;20485;-84
2022/08/16 06:55:15;;;;;;;22.75;12.07;;;21.70;99.90;;;;;;5073059;28;20390;-85
2022/08/16 06:57:50;;;;;;;14.43;11.20;;;21.80;99.90;;;;;;5072853;28;20394;-84
2022/08/16 07:00:20;;;;;;;16.27;10.75;;;21.80;99.90;;;;;;5056454;28;20394;-85
2022/08/16 07:03:12;;;;;;;14.32;10.52;;;21.90;99.90;;;;;;5072746;28;20405;-84
2022/08/16 07:05:56;;;;;;;11.88;10.48;;;22.00;99.90;;;;;;5072640;28;20394;-84
2022/08/16 07:08:45;;;;;;;15.05;10.50;;;22.10;99.90;;;;;;5072555;28;20401;-85
2022/08/16 07:11:16;;;;;;;13.18;11.13;;;22.10;99.90;;;;;;5072759;28;20406;-85
2022/08/16 07:13:43;;;;;;;12.15;10.73;;;22.10;99.90;;;;;;5072805;28;20767;-85
2022/08/16 07:16:40;;;;;;;14.07;10.50;;;22.20;99.90;;;;;;5059992;28;20775;-85
2022/08/16 07:19:09;;;;;;;14.68;10.45;;;22.30;99.90;;;;;;5072600;28;20383;-85
2022/08/16 07:21:40;;;;;;;16.27;11.05;;;22.40;99.90;;;;;;5056483;28;20386;-85
2022/08/16 07:24:27;;;;;;;15.30;10.80;;;22.40;99.90;;;;;;5072483;28;20422;-85
2022/08/16 07:27:03;;;;;;;16.50;10.90;;;22.50;99.90;;;;;;5057133;28;20918;-85
2022/08/16 07:29:40;;;;;;;14.37;11.00;;;22.50;99.90;;;;;;5072328;28;20394;-85
2022/08/16 07:32:09;;;;;;;14.87;10.60;;;22.60;99.90;;;;;;5072370;28;20436;-86
2022/08/16 07:34:37;;;;;;;15.63;10.70;;;22.70;99.90;;;;;;5055827;28;20759;-86
2022/08/16 07:37:17;;;;;;;12.43;10.30;;;22.70;99.90;;;;;;5072426;28;20394;-85
2022/08/16 07:40:12;;;;;;;13.27;10.65;;;22.60;99.90;;;;;;5066840;28;20395;-85
2022/08/16 07:42:43;;;;;;;11.97;10.63;;;22.70;99.90;;;;;;5056139;28;20460;-84
2022/08/16 07:45:13;;;;;;;32.20;11.95;;;22.80;99.90;;;;;;5072375;28;20440;-86
2022/08/16 07:47:48;;;;;;;14.98;11.07;;;22.80;99.90;;;;;;5072159;28;20398;-85
2022/08/16 07:50:18;;;;;;;12.68;10.45;;;22.90;99.90;;;;;;5055754;28;20420;-85
2022/08/16 07:53:06;;;;;;;12.73;10.55;;;23.00;99.90;;;;;;5071839;28;20397;-85
2022/08/16 07:55:35;;;;;;;14.57;11.10;;;23.00;99.90;;;;;;5055262;28;20396;-85
2022/08/16 07:58:20;;;;;;;12.00;10.68;;;23.00;99.90;;;;;;5072015;28;20406;-86
2022/08/16 08:01:05;;;;;;;12.43;10.50;;;23.20;99.90;;;;;;5071705;28;20823;-86
2022/08/16 08:03:42;;;;;;;12.90;10.35;;;23.30;99.90;;;;;;5071531;28;20496;-85
2022/08/16 08:06:22;;;;;;;16.58;11.18;;;23.30;99.90;;;;;;5055388;28;20489;-85
2022/08/16 08:08:54;;;;;;;11.60;10.35;;;23.40;99.90;;;;;;5071519;28;20420;-85
2022/08/16 08:11:27;;;;;;;13.20;10.73;;;23.50;99.90;;;;;;5071518;28;20455;-86
2022/08/16 08:13:59;;;;;;;12.85;10.65;;;23.60;99.90;;;;;;5071854;28;20924;-85
2022/08/16 08:16:35;;;;;;;12.25;10.95;;;23.70;99.90;;;;;;5056172;28;20410;-85
2022/08/16 08:19:07;;;;;;;14.18;11.20;;;23.60;99.90;;;;;;5055091;28;20430;-85
2022/08/16 08:21:37;;;;;;;14.35;10.43;;;23.70;99.90;;;;;;5071416;28;20394;-85
2022/08/16 08:24:36;;;;;;;12.85;10.52;;;23.70;99.90;;;;;;5071462;28;20488;-85
2022/08/16 08:27:07;;;;;;;12.05;10.70;;;23.90;99.90;;;;;;5072238;28;20459;-85
2022/08/16 08:29:36;;;;;;;12.82;10.45;;;23.90;99.90;;;;;;5054730;28;20426;-86
2022/08/16 08:32:10;;;;;;;14.00;11.02;;;23.90;99.90;;;;;;5054737;28;20443;-85
2022/08/16 08:35:01;;;;;;;15.57;10.67;;;24.10;99.90;;;;;;5041167;28;20395;-85
2022/08/16 08:37:34;;;;;;;11.98;10.07;;;24.10;99.90;;;;;;5038612;28;20391;-85
2022/08/16 08:40:26;;;;;;;13.23;10.32;;;24.10;99.90;;;;;;5054443;28;20399;-85
2022/08/16 08:42:59;;;;;;;13.27;10.35;;;24.30;99.90;;;;;;5038139;28;20398;-85
2022/08/16 08:45:49;;;;;;;15.73;10.60;;;24.40;99.90;;;;;;5054550;28;20733;-86
2022/08/16 08:48:21;;;;;;;13.18;10.43;;;24.40;99.90;;;;;;5054305;28;20416;-85
2022/08/16 08:51:10;;;;;;;12.23;10.97;;;24.50;99.90;;;;;;5054092;28;20425;-85
2022/08/16 08:53:49;;;;;;;14.23;10.55;;;24.60;99.90;;;;;;5054421;28;20397;-85
2022/08/16 08:56:31;;;;;;;12.25;11.05;;;24.60;99.90;;;;;;5039219;28;20400;-85
2022/08/16 08:59:31;;;;;;;15.60;10.40;;;24.60;99.90;;;;;;5034531;28;20394;-85
2022/08/16 09:02:02;;;;;;;12.57;10.55;;;24.70;99.90;;;;;;5038171;28;20477;-85
2022/08/16 09:04:38;;;;;;;15.48;10.63;;;24.80;99.90;;;;;;5071844;28;20468;-85
2022/08/16 09:07:06;;;;;;;12.52;10.00;;;24.90;99.90;;;;;;5053899;28;20413;-85
2022/08/16 09:09:37;;;;;;;15.30;10.23;;;25.00;99.90;;;;;;5054053;28;20394;-85
2022/08/16 09:12:10;;;;;;;13.03;10.27;;;25.00;99.90;;;;;;5053902;28;20451;-85
2022/08/16 09:15:06;;;;;;;14.93;10.57;;;25.10;99.90;;;;;;5071667;28;20802;-86
2022/08/16 09:17:34;;;;;;;15.18;9.90;;;25.20;99.90;;;;;;5071410;28;20417;-85
2022/08/16 09:20:25;;;;;;;15.57;10.75;;;25.30;99.90;;;;;;5039853;28;20391;-85
2022/08/16 09:22:53;;;;;;;17.65;11.70;;;25.30;99.90;;;;;;5053715;28;20764;-85
2022/08/16 09:25:27;;;;;;;15.13;10.27;;;25.30;99.90;;;;;;5056116;28;20420;-85
2022/08/16 09:28:10;;;;;;;14.90;10.38;;;25.40;99.90;;;;;;5070068;28;21348;-85
2022/08/16 09:31:15;;;;;;;14.20;11.30;;;25.40;99.90;;;;;;5070350;28;20416;-85
2022/08/16 09:33:43;;;;;;;14.23;11.00;;;25.50;99.90;;;;;;5071615;28;20390;-85
2022/08/16 09:36:18;;;;;;;16.38;10.98;;;25.40;99.90;;;;;;5070595;28;20465;-86
2022/08/16 09:39:00;;;;;;;16.40;10.63;;;25.50;99.90;;;;;;5055356;28;20865;-85
2022/08/16 09:41:28;;;;;;;15.27;10.77;;;25.60;99.90;;;;;;5071580;28;20386;-85
2022/08/16 09:43:57;;;;;;;16.38;11.25;;;25.70;99.90;;;;;;5070340;28;20888;-86
2022/08/16 09:46:45;;;;;;;12.63;11.07;;;25.70;99.90;;;;;;5070594;28;20904;-87
2022/08/16 09:49:17;;;;;;;14.07;11.02;;;25.80;99.90;;;;;;5054304;28;20795;-87
2022/08/16 09:51:53;;;;;;;14.27;10.77;;;25.80;99.90;;;;;;5071292;28;20958;-85
2022/08/16 09:54:24;;;;;;;15.17;10.73;;;25.90;99.90;;;;;;5071510;28;20386;-86
2022/08/16 09:56:59;;;;;;;13.68;11.13;;;26.10;99.90;;;;;;5070188;28;20382;-87
2022/08/16 09:59:27;;;;;;;18.17;11.90;;;26.10;99.90;;;;;;5071509;28;20382;-85
2022/08/16 10:01:58;;;;;;;14.60;11.07;;;26.10;99.90;;;;;;5070324;28;20393;-85
2022/08/16 10:04:26;;;;;;;17.45;11.05;;;26.10;99.90;;;;;;5071485;28;20382;-85
2022/08/16 10:07:01;;;;;;;12.68;11.20;;;26.20;99.90;;;;;;5071313;28;20872;-86
2022/08/16 10:09:43;;;;;;;17.07;11.33;;;26.20;99.90;;;;;;5070123;28;20393;-86
2022/08/16 10:15:26;;;;;;;14.80;11.05;;;26.30;99.90;;;;;;5071391;28;20877;-85
2022/08/16 10:17:57;;;;;;;14.30;11.43;;;26.50;99.90;;;;;;5070101;28;20386;-86
2022/08/16 10:20:37;;;;;;;14.32;11.00;;;26.50;99.90;;;;;;5071343;28;20875;-86
2022/08/16 10:23:07;;;;;;;16.80;11.52;;;26.60;99.90;;;;;;5071261;28;20414;-85
2022/08/16 10:25:45;;;;;;;14.43;11.40;;;26.50;99.90;;;;;;5069948;28;20401;-85
2022/08/16 10:28:34;;;;;;;15.75;11.00;;;26.50;99.90;;;;;;5072186;28;20394;-85
2022/08/16 10:31:07;;;;;;;42.35;13.75;;;26.70;99.90;;;;;;5074668;28;20460;-86
2022/08/16 10:33:44;;;;;;;14.10;11.30;;;26.80;99.90;;;;;;5074920;28;20382;-85
2022/08/16 10:36:13;;;;;;;15.17;11.60;;;26.90;99.90;;;;;;5057215;28;20393;-88
2022/08/16 10:39:01;;;;;;;14.13;11.47;;;26.90;99.90;;;;;;5073623;28;20418;-87
2022/08/16 10:41:31;;;;;;;16.08;11.95;;;26.90;99.90;;;;;;5057248;28;20398;-87
2022/08/16 10:43:59;;;;;;;12.68;10.48;;;26.90;99.90;;;;;;5067304;28;20495;-87
2022/08/16 10:46:27;;;;;;;19.00;11.07;;;27.00;99.90;;;;;;5074771;28;20402;-85
2022/08/16 10:49:10;;;;;;;14.25;10.50;;;27.00;99.90;;;;;;5070361;28;20391;-85
2022/08/16 10:51:38;;;;;;;16.27;11.57;;;27.20;99.90;;;;;;5053195;28;20399;-84
2022/08/16 10:54:26;;;;;;;14.23;10.98;;;27.30;99.90;;;;;;5053752;28;20411;-85
2022/08/16 10:56:58;;;;;;;14.50;11.20;;;27.30;99.90;;;;;;5059714;28;20420;-86
2022/08/16 10:59:28;;;;;;;15.20;11.20;;;27.40;99.90;;;;;;5073728;28;20400;-85
2022/08/16 11:02:13;;;;;;;14.47;10.77;;;27.50;99.90;;;;;;5072543;28;20551;-85
2022/08/16 11:05:01;;;;;;;17.33;11.23;;;27.50;99.90;;;;;;5064583;28;20459;-85
2022/08/16 11:07:37;;;;;;;14.68;10.68;;;27.50;99.90;;;;;;5067671;28;20403;-85
2022/08/16 11:10:32;;;;;;;20.55;10.98;;;27.60;99.90;;;;;;5073329;28;20437;-86
2022/08/16 11:13:27;;;;;;;21.83;10.77;;;27.60;99.90;;;;;;5068733;28;20392;-86
2022/08/16 11:16:14;;;;;;;15.85;10.95;;;27.70;99.90;;;;;;5072552;28;20475;-85
2022/08/16 11:19:03;;;;;;;15.20;11.00;;;27.80;99.90;;;;;;5071832;28;20832;-86
2022/08/16 11:21:43;;;;;;;13.77;10.67;;;27.80;99.90;;;;;;5072434;28;20397;-85
2022/08/16 11:24:31;;;;;;;15.52;11.25;;;27.80;99.90;;;;;;5071579;28;20421;-86
2022/08/16 11:27:13;;;;;;;14.68;11.00;;;27.90;99.90;;;;;;5073669;28;20386;-85
2022/08/16 11:29:53;;;;;;;15.10;11.18;;;28.00;99.90;;;;;;5071421;28;20506;-84
2022/08/16 11:32:27;;;;;;;13.40;10.23;;;28.10;99.90;;;;;;5068787;28;20401;-83
2022/08/16 11:35:06;;;;;;;14.57;10.80;;;28.20;99.90;;;;;;5073140;28;20413;-84
2022/08/16 11:38:00;;;;;;;14.27;11.40;;;28.10;99.90;;;;;;5062234;28;20411;-84
2022/08/16 11:40:51;;;;;;;13.93;10.40;;;28.10;99.90;;;;;;5069538;28;20405;-83
2022/08/16 11:43:24;;;;;;;11.67;10.27;;;28.20;99.90;;;;;;5065830;28;20422;-84
2022/08/16 11:45:55;;;;;;;12.82;10.50;;;28.20;99.90;;;;;;5082331;28;20580;-84
2022/08/16 11:48:25;;;;;;;13.30;10.75;;;28.30;99.90;;;;;;5068377;28;20394;-83
2022/08/16 11:50:55;;;;;;;12.75;10.73;;;28.40;99.90;;;;;;5072861;28;20409;-84
2022/08/16 11:53:23;;;;;;;15.37;10.73;;;28.50;99.90;;;;;;5067555;28;20391;-84
2022/08/16 11:55:52;;;;;;;11.65;10.45;;;28.50;99.90;;;;;;5058741;28;20396;-84
2022/08/16 11:58:27;;;;;;;12.65;10.68;;;28.60;99.90;;;;;;5066825;28;20503;-84
2022/08/16 12:00:57;;;;;;;12.00;10.13;;;28.70;99.90;;;;;;5060949;28;20854;-85
2022/08/16 12:03:30;;;;;;;13.85;9.93;;;28.70;99.90;;;;;;5064605;28;20434;-84
2022/08/16 12:06:08;;;;;;;13.15;10.13;;;28.60;99.90;;;;;;5071608;28;20374;-85
2022/08/16 12:08:52;;;;;;;15.18;10.23;;;28.70;99.90;;;;;;5039227;28;20450;-84
2022/08/16 12:11:22;;;;;;;13.40;10.55;;;28.80;99.90;;;;;;5073480;28;20434;-84
2022/08/16 12:13:53;;;;;;;17.13;10.30;;;28.80;99.90;;;;;;5073266;28;20402;-84
2022/08/16 12:16:21;;;;;;;13.90;10.13;;;28.90;99.90;;;;;;5070579;28;20382;-86
2022/08/16 12:18:49;;;;;;;14.77;10.38;;;29.00;99.90;;;;;;5070014;28;20403;-85
2022/08/16 12:21:18;;;;;;;14.10;9.70;;;29.10;99.90;;;;;;5051599;28;20498;-85
2022/08/16 12:23:49;;;;;;;13.70;9.35;;;29.10;99.90;;;;;;5052515;28;20395;-85
2022/08/16 12:26:18;;;;;;;13.93;9.70;;;29.10;99.90;;;;;;5052620;28;20485;-85
2022/08/16 12:28:47;;;;;;;12.38;9.27;;;29.10;99.90;;;;;;5051409;28;20394;-86
2022/08/16 12:31:24;;;;;;;14.68;9.82;;;29.10;99.90;;;;;;5052339;28;20396;-85
2022/08/16 12:33:54;;;;;;;13.07;8.82;;;29.20;99.90;;;;;;5052636;28;20880;-86
2022/08/16 12:36:25;;;;;;;19.48;9.32;;;29.30;99.90;;;;;;5097978;28;20386;-86
2022/08/16 12:38:56;;;;;;;12.85;9.52;;;29.20;99.90;;;;;;5071182;28;20442;-86
2022/08/16 12:41:25;;;;;;;14.00;9.45;;;29.30;99.90;;;;;;5071340;28;20390;-86
2022/08/16 12:43:53;;;;;;;13.82;9.02;;;29.50;99.90;;;;;;5071059;28;20477;-85
2022/08/16 12:46:29;;;;;;;10.48;8.23;;;29.60;99.90;;;;;;5072106;28;20422;-85
2022/08/16 12:49:00;;;;;;;12.38;8.32;;;29.60;99.90;;;;;;5071988;28;20737;-86
2022/08/16 12:51:36;;;;;;;12.93;8.40;;;29.50;99.90;;;;;;5071525;28;20402;-86
2022/08/16 12:54:23;;;;;;;13.05;8.35;;;29.60;99.90;;;;;;5071989;28;20860;-86
2022/08/16 12:56:51;;;;;;;13.43;8.88;;;29.50;99.90;;;;;;5067255;28;20416;-85
2022/08/16 12:59:21;;;;;;;16.40;8.65;;;29.50;99.90;;;;;;5061245;28;20721;-85
2022/08/16 13:01:50;;;;;;;11.90;8.57;;;29.60;99.90;;;;;;5066627;28;20394;-86
2022/08/16 13:04:27;;;;;;;12.52;8.57;;;29.60;99.90;;;;;;5093415;28;20390;-86
2022/08/16 13:07:03;;;;;;;12.80;8.85;;;29.70;99.90;;;;;;5090348;28;20453;-86
2022/08/16 13:09:41;;;;;;;9.82;8.80;;;29.80;99.90;;;;;;5067550;28;20388;-86
2022/08/16 13:12:19;;;;;;;11.85;8.55;;;29.80;99.90;;;;;;5050696;28;20400;-85
2022/08/16 13:14:52;;;;;;;13.82;8.30;;;29.70;99.90;;;;;;5050527;28;20384;-85
2022/08/16 13:17:23;;;;;;;13.35;8.55;;;29.80;99.90;;;;;;5051822;28;20380;-85
2022/08/16 13:19:56;;;;;;;13.53;8.83;;;29.90;99.90;;;;;;5050706;28;20383;-86